TimeEDT,TemperatureF,Dew PointF,Humidity,Sea Level PressureIn,VisibilityMPH,Wind Direction,Wind SpeedMPH,Gust SpeedMPH,PrecipitationIn,Events,Conditions,WindDirDegrees,DateUTC
12:10 AM,32.0,30.2,93,30.14,10.0,Calm,Calm,-,N/A,,Clear,0,2013-03-31 04:10:00
12:30 AM,32.0,32.0,100,30.14,10.0,Calm,Calm,-,N/A,,Clear,0,2013-03-31 04:30:00
12:50 AM,33.8,32.0,93,30.14,10.0,Calm,Calm,-,N/A,,Clear,0,2013-03-31 04:50:00
1:10 AM,32.0,32.0,100,30.14,10.0,Calm,Calm,-,N/A,,Clear,0,2013-03-31 05:10:00
1:30 AM,32.0,30.2,93,30.14,10.0,Calm,Calm,-,N/A,,Clear,0,2013-03-31 05:30:00
1:50 AM,30.2,30.2,100,30.13,10.0,Calm,Calm,-,N/A,,Clear,0,2013-03-31 05:50:00
2:10 AM,32.0,32.0,100,30.13,10.0,Calm,Calm,-,N/A,,Clear,0,2013-03-31 06:10:00
2:30 AM,32.0,32.0,100,30.12,10.0,Calm,Calm,-,N/A,,Clear,0,2013-03-31 06:30:00
2:50 AM,32.0,32.0,100,30.12,10.0,Calm,Calm,-,N/A,,Clear,0,2013-03-31 06:50:00
3:10 AM,32.0,32.0,100,30.11,10.0,Calm,Calm,-,N/A,,Clear,0,2013-03-31 07:10:00
3:30 AM,32.0,32.0,100,30.10,10.0,Calm,Calm,-,N/A,,Clear,0,2013-03-31 07:30:00
3:50 AM,32.0,32.0,100,30.09,10.0,Calm,Calm,-,N/A,,Clear,0,2013-03-31 07:50:00
4:10 AM,33.8,32.0,93,30.08,10.0,Calm,Calm,-,N/A,,Clear,0,2013-03-31 08:10:00
4:30 AM,33.8,32.0,93,30.08,10.0,Calm,Calm,-,N/A,,Clear,0,2013-03-31 08:30:00
4:50 AM,32.0,32.0,100,30.07,10.0,Calm,Calm,-,N/A,,Clear,0,2013-03-31 08:50:00
5:10 AM,32.0,32.0,100,30.07,10.0,Calm,Calm,-,N/A,,Clear,0,2013-03-31 09:10:00
5:30 AM,32.0,32.0,100,30.06,10.0,Calm,Calm,-,N/A,,Clear,0,2013-03-31 09:30:00
5:50 AM,33.8,32.0,93,30.05,10.0,Calm,Calm,-,N/A,,Clear,0,2013-03-31 09:50:00
6:10 AM,32.0,32.0,100,30.05,10.0,Calm,Calm,-,N/A,,Clear,0,2013-03-31 10:10:00
6:30 AM,33.8,32.0,93,30.04,10.0,Calm,Calm,-,N/A,,Clear,0,2013-03-31 10:30:00
6:45 AM,33.8,32.0,93,30.04,10.0,Calm,Calm,-,N/A,,Clear,0,2013-03-31 10:45:00
7:45 AM,35.6,33.8,93,30.04,10.0,Calm,Calm,-,N/A,,Clear,0,2013-03-31 11:45:00
8:45 AM,39.2,35.6,87,30.03,10.0,Calm,Calm,-,N/A,,Overcast,0,2013-03-31 12:45:00
9:48 AM,46.4,37.4,71,29.99,10.0,SSW,6.9,-,N/A,,Overcast,210,2013-03-31 13:48:00
10:46 AM,46.4,39.2,76,29.97,7.0,Calm,Calm,-,N/A,Rain,Light Rain,0,2013-03-31 14:46:00
11:45 AM,46.4,42.8,87,29.96,7.0,Calm,Calm,-,N/A,Rain,Light Rain,0,2013-03-31 15:45:00
12:52 PM,44.6,44.6,100,29.92,5.0,NNE,4.6,-,N/A,Rain,Light Rain,20,2013-03-31 16:52:00
1:50 PM,44.6,44.6,100,29.87,5.0,NNE,3.5,-,N/A,Rain,Light Rain,20,2013-03-31 17:50:00
2:23 PM,44.6,44.6,100,29.85,1.5,North,4.6,-,N/A,,Drizzle,10,2013-03-31 18:23:00
2:55 PM,44.6,44.6,100,29.83,1.5,North,4.6,-,N/A,Rain,Rain,10,2013-03-31 18:55:00
4:45 PM,44.6,44.6,100,29.79,1.0,Calm,Calm,-,N/A,,Overcast,0,2013-03-31 20:45:00
4:55 PM,44.6,44.6,100,29.80,1.0,North,4.6,-,N/A,,Overcast,360,2013-03-31 20:55:00
5:50 PM,44.6,44.6,100,29.78,1.0,Calm,Calm,-,N/A,,Overcast,0,2013-03-31 21:50:00
6:53 PM,46.4,46.4,100,29.78,1.0,Calm,Calm,-,N/A,,Overcast,0,2013-03-31 22:53:00
7:54 PM,46.4,46.4,100,29.78,1.5,Calm,Calm,-,N/A,,Overcast,0,2013-03-31 23:54:00
8:55 PM,46.4,46.4,100,29.79,7.0,SW,6.9,-,N/A,,Overcast,220,2013-04-01 00:55:00
9:15 PM,46.4,46.4,100,29.80,7.0,WSW,4.6,-,N/A,,Light Drizzle,240,2013-04-01 01:15:00
9:35 PM,46.4,46.4,100,29.81,7.0,SW,4.6,-,N/A,,Light Drizzle,230,2013-04-01 01:35:00
9:55 PM,44.6,44.6,100,29.81,5.0,Calm,Calm,-,N/A,,Mostly Cloudy,0,2013-04-01 01:55:00
10:15 PM,42.8,42.8,100,29.81,2.5,WSW,4.6,-,N/A,,Scattered Clouds,240,2013-04-01 02:15:00
10:35 PM,41.0,41.0,100,29.80,2.0,Calm,Calm,-,N/A,,Mostly Cloudy,0,2013-04-01 02:35:00
10:55 PM,42.8,42.8,100,29.80,0.5,Calm,Calm,-,N/A,Fog,Fog,0,2013-04-01 02:55:00
11:15 PM,41.0,41.0,100,29.80,0.2,South,3.5,-,N/A,Fog,Fog,170,2013-04-01 03:15:00
11:35 PM,41.0,41.0,100,29.79,0.5,SSW,3.5,-,N/A,Fog,Fog,210,2013-04-01 03:35:00
11:55 PM,42.8,42.8,100,29.80,3.0,South,4.6,-,N/A,,Overcast,180,2013-04-01 03:55:00